sensor_id;sensor_type;location;lat;lon;timestamp;pressure;altitude;pressure_sealevel;temperature;humidity
38780;BME280;29273;49.962;9.768;2023-02-01T00:01:12;100187.09;;;8.63;58.47
38780;BME280;29273;49.962;9.768;2023-02-01T00:03:37;100193.19;;;8.63;58.35
38780;BME280;29273;49.962;9.768;2023-02-01T00:06:03;100199.28;;;8.64;58.39
38780;BME280;29273;49.962;9.768;2023-02-01T00:08:29;100199.28;;;8.64;58.38
38780;BME280;29273;49.962;9.768;2023-02-01T00:11:02;100193.28;;;8.70;58.02
38780;BME280;29273;49.962;9.768;2023-02-01T00:13:32;100201.38;;;8.68;57.94
38780;BME280;29273;49.962;9.768;2023-02-01T00:16:05;100198.56;;;8.70;57.93
38780;BME280;29273;49.962;9.768;2023-02-01T00:18:31;100188.88;;;8.62;58.14
38780;BME280;29273;49.962;9.768;2023-02-01T00:20:57;100201.91;;;8.64;58.09
38780;BME280;29273;49.962;9.768;2023-02-01T00:23:22;100195.00;;;8.63;58.12
38780;BME280;29273;49.962;9.768;2023-02-01T00:25:48;100181.81;;;8.63;58.13
38780;BME280;29273;49.962;9.768;2023-02-01T00:28:13;100177.34;;;8.63;57.82
38780;BME280;29273;49.962;9.768;2023-02-01T00:30:38;100178.31;;;8.62;58.09
38780;BME280;29273;49.962;9.768;2023-02-01T00:33:04;100184.81;;;8.60;58.02
38780;BME280;29273;49.962;9.768;2023-02-01T00:35:29;100189.44;;;8.58;57.98
38780;BME280;29273;49.962;9.768;2023-02-01T00:37:55;100174.59;;;8.57;57.90
38780;BME280;29273;49.962;9.768;2023-02-01T00:40:29;100181.31;;;8.59;57.72
38780;BME280;29273;49.962;9.768;2023-02-01T00:42:55;100181.59;;;8.49;58.03
38780;BME280;29273;49.962;9.768;2023-02-01T00:45:22;100186.88;;;8.49;57.94
38780;BME280;29273;49.962;9.768;2023-02-01T00:47:48;100192.69;;;8.45;58.06
38780;BME280;29273;49.962;9.768;2023-02-01T00:50:13;100191.88;;;8.44;57.93
38780;BME280;29273;49.962;9.768;2023-02-01T00:52:39;100187.72;;;8.42;57.94
38780;BME280;29273;49.962;9.768;2023-02-01T00:55:04;100196.47;;;8.42;58.25
38780;BME280;29273;49.962;9.768;2023-02-01T00:57:30;100179.66;;;8.43;58.23
38780;BME280;29273;49.962;9.768;2023-02-01T01:17:53;100166.47;;;8.43;58.38
38780;BME280;29273;49.962;9.768;2023-02-01T01:20:19;100164.28;;;8.47;58.16
38780;BME280;29273;49.962;9.768;2023-02-01T01:22:47;100171.22;;;8.48;58.27
38780;BME280;29273;49.962;9.768;2023-02-01T01:25:14;100153.56;;;8.48;58.23
38780;BME280;29273;49.962;9.768;2023-02-01T01:27:39;100166.41;;;8.51;58.21
38780;BME280;29273;49.962;9.768;2023-02-01T01:30:05;100172.13;;;8.55;58.26
38780;BME280;29273;49.962;9.768;2023-02-01T01:32:31;100171.16;;;8.56;58.25
38780;BME280;29273;49.962;9.768;2023-02-01T01:34:56;100161.22;;;8.58;58.28
38780;BME280;29273;49.962;9.768;2023-02-01T01:37:22;100166.31;;;8.60;58.24
38780;BME280;29273;49.962;9.768;2023-02-01T01:39:47;100169.78;;;8.60;58.18
38780;BME280;29273;49.962;9.768;2023-02-01T01:42:13;100165.97;;;8.63;58.23
38780;BME280;29273;49.962;9.768;2023-02-01T01:45:00;100172.50;;;8.67;58.03
38780;BME280;29273;49.962;9.768;2023-02-01T01:47:34;100170.50;;;8.69;58.22
38780;BME280;29273;49.962;9.768;2023-02-01T01:50:03;100173.16;;;8.69;58.09
38780;BME280;29273;49.962;9.768;2023-02-01T01:52:29;100170.06;;;8.65;58.33
38780;BME280;29273;49.962;9.768;2023-02-01T01:54:56;100174.16;;;8.68;58.23
38780;BME280;29273;49.962;9.768;2023-02-01T01:57:27;100165.88;;;8.71;58.08
38780;BME280;29273;49.962;9.768;2023-02-01T02:00:05;100153.31;;;8.73;57.74
38780;BME280;29273;49.962;9.768;2023-02-01T02:02:40;100141.09;;;8.72;57.94
38780;BME280;29273;49.962;9.768;2023-02-01T02:05:08;100133.38;;;8.70;57.94
38780;BME280;29273;49.962;9.768;2023-02-01T02:07:36;100133.81;;;8.74;57.76
38780;BME280;29273;49.962;9.768;2023-02-01T02:10:08;100137.94;;;8.77;57.74
38780;BME280;29273;49.962;9.768;2023-02-01T02:12:44;100133.28;;;8.79;57.57
38780;BME280;29273;49.962;9.768;2023-02-01T02:15:11;100137.13;;;8.76;57.57
38780;BME280;29273;49.962;9.768;2023-02-01T02:17:58;100121.72;;;8.80;57.63
38780;BME280;29273;49.962;9.768;2023-02-01T02:32:23;100093.66;;;8.79;57.15
38780;BME280;29273;49.962;9.768;2023-02-01T02:37:45;100091.47;;;8.82;57.37
38780;BME280;29273;49.962;9.768;2023-02-01T02:43:25;100096.31;;;8.79;57.23
38780;BME280;29273;49.962;9.768;2023-02-01T02:46:24;100085.38;;;8.82;57.30
38780;BME280;29273;49.962;9.768;2023-02-01T02:49:34;100089.22;;;8.79;57.31
38780;BME280;29273;49.962;9.768;2023-02-01T02:52:19;100085.75;;;8.79;57.50
38780;BME280;29273;49.962;9.768;2023-02-01T02:55:07;100077.47;;;8.82;57.63
38780;BME280;29273;49.962;9.768;2023-02-01T02:57:37;100087.03;;;8.83;57.53
38780;BME280;29273;49.962;9.768;2023-02-01T03:00:28;100092.31;;;8.83;57.51
38780;BME280;29273;49.962;9.768;2023-02-01T03:03:13;100096.31;;;8.79;57.79
38780;BME280;29273;49.962;9.768;2023-02-01T03:05:57;100079.84;;;8.77;57.82
38780;BME280;29273;49.962;9.768;2023-02-01T03:08:28;100094.13;;;8.82;57.56
38780;BME280;29273;49.962;9.768;2023-02-01T03:11:06;100086.59;;;8.79;57.45
38780;BME280;29273;49.962;9.768;2023-02-01T03:16:34;100094.69;;;8.78;57.51
38780;BME280;29273;49.962;9.768;2023-02-01T03:19:22;100090.03;;;8.80;57.61
38780;BME280;29273;49.962;9.768;2023-02-01T03:22:02;100083.47;;;8.76;57.55
38780;BME280;29273;49.962;9.768;2023-02-01T03:24:54;100082.47;;;8.77;57.39
38780;BME280;29273;49.962;9.768;2023-02-01T03:27:27;100081.09;;;8.81;57.32
38780;BME280;29273;49.962;9.768;2023-02-01T03:30:03;100088.19;;;8.80;57.40
38780;BME280;29273;49.962;9.768;2023-02-01T03:32:33;100078.00;;;8.77;57.57
38780;BME280;29273;49.962;9.768;2023-02-01T03:35:23;100086.38;;;8.81;57.62
38780;BME280;29273;49.962;9.768;2023-02-01T03:37:52;100086.50;;;8.58;57.94
38780;BME280;29273;49.962;9.768;2023-02-01T03:40:19;100087.03;;;8.68;58.04
38780;BME280;29273;49.962;9.768;2023-02-01T03:42:49;100078.19;;;8.76;57.90
38780;BME280;29273;49.962;9.768;2023-02-01T03:45:26;100081.84;;;8.75;57.97
38780;BME280;29273;49.962;9.768;2023-02-01T03:47:56;100074.47;;;8.70;58.16
38780;BME280;29273;49.962;9.768;2023-02-01T03:50:26;100075.00;;;8.65;58.51
38780;BME280;29273;49.962;9.768;2023-02-01T03:52:54;100072.19;;;8.67;58.24
38780;BME280;29273;49.962;9.768;2023-02-01T03:55:23;100068.09;;;8.64;58.28
38780;BME280;29273;49.962;9.768;2023-02-01T03:57:53;100070.91;;;8.63;58.38
38780;BME280;29273;49.962;9.768;2023-02-01T04:00:24;100066.00;;;8.60;58.38
38780;BME280;29273;49.962;9.768;2023-02-01T04:02:50;100065.72;;;8.55;58.54
38780;BME280;29273;49.962;9.768;2023-02-01T04:05:17;100070.34;;;8.52;58.45
38780;BME280;29273;49.962;9.768;2023-02-01T04:07:50;100064.63;;;8.49;58.26
38780;BME280;29273;49.962;9.768;2023-02-01T04:10:16;100058.06;;;8.45;58.15
38780;BME280;29273;49.962;9.768;2023-02-01T04:12:42;100060.91;;;8.43;58.04
38780;BME280;29273;49.962;9.768;2023-02-01T04:15:08;100057.59;;;8.41;57.88
38780;BME280;29273;49.962;9.768;2023-02-01T04:17:33;100062.22;;;8.39;57.85
38780;BME280;29273;49.962;9.768;2023-02-01T04:19:59;100057.50;;;8.34;57.74
38780;BME280;29273;49.962;9.768;2023-02-01T04:22:25;100058.66;;;8.32;57.67
38780;BME280;29273;49.962;9.768;2023-02-01T04:24:50;100071.22;;;8.30;57.59
38780;BME280;29273;49.962;9.768;2023-02-01T04:27:15;100067.97;;;8.28;57.90
38780;BME280;29273;49.962;9.768;2023-02-01T04:29:41;100064.47;;;8.27;57.86
38780;BME280;29273;49.962;9.768;2023-02-01T04:32:07;100066.31;;;8.27;57.77
38780;BME280;29273;49.962;9.768;2023-02-01T04:34:32;100066.47;;;8.25;57.98
38780;BME280;29273;49.962;9.768;2023-02-01T04:36:58;100066.47;;;8.25;57.83
38780;BME280;29273;49.962;9.768;2023-02-01T04:39:24;100058.75;;;8.24;57.87
38780;BME280;29273;49.962;9.768;2023-02-01T04:41:49;100072.75;;;8.24;57.82
38780;BME280;29273;49.962;9.768;2023-02-01T04:44:17;100063.66;;;8.27;57.72
38780;BME280;29273;49.962;9.768;2023-02-01T04:46:44;100065.31;;;8.28;57.78
38780;BME280;29273;49.962;9.768;2023-02-01T04:49:11;100061.22;;;8.25;57.90
38780;BME280;29273;49.962;9.768;2023-02-01T04:51:38;100065.31;;;8.28;57.92
38780;BME280;29273;49.962;9.768;2023-02-01T04:54:04;100053.91;;;8.27;57.92
38780;BME280;29273;49.962;9.768;2023-02-01T04:56:29;100061.84;;;8.27;57.72
38780;BME280;29273;49.962;9.768;2023-02-01T04:58:55;100053.91;;;8.27;57.59
38780;BME280;29273;49.962;9.768;2023-02-01T05:01:22;100047.84;;;8.27;57.62
38780;BME280;29273;49.962;9.768;2023-02-01T05:03:47;100052.31;;;8.26;57.43
38780;BME280;29273;49.962;9.768;2023-02-01T05:06:13;100061.38;;;8.24;57.54
38780;BME280;29273;49.962;9.768;2023-02-01T05:08:38;100057.94;;;8.23;57.52
38780;BME280;29273;49.962;9.768;2023-02-01T05:11:04;100059.75;;;8.23;57.40
38780;BME280;29273;49.962;9.768;2023-02-01T05:13:30;100057.94;;;8.23;57.63
38780;BME280;29273;49.962;9.768;2023-02-01T05:16:14;100057.13;;;8.23;57.72
38780;BME280;29273;49.962;9.768;2023-02-01T05:18:40;100065.66;;;8.25;57.48
38780;BME280;29273;49.962;9.768;2023-02-01T05:21:06;100062.84;;;8.26;57.41
38780;BME280;29273;49.962;9.768;2023-02-01T05:23:31;100048.81;;;8.26;57.40
38780;BME280;29273;49.962;9.768;2023-02-01T05:26:01;100042.03;;;8.31;57.20
38780;BME280;29273;49.962;9.768;2023-02-01T05:28:28;100045.66;;;8.30;57.32
38780;BME280;29273;49.962;9.768;2023-02-01T05:30:54;100044.03;;;8.29;57.39
38780;BME280;29273;49.962;9.768;2023-02-01T05:33:20;100046.84;;;8.28;57.31
38780;BME280;29273;49.962;9.768;2023-02-01T05:35:45;100045.84;;;8.29;57.19
38780;BME280;29273;49.962;9.768;2023-02-01T05:38:11;100050.94;;;8.30;57.32
38780;BME280;29273;49.962;9.768;2023-02-01T05:40:36;100044.66;;;8.31;57.44
38780;BME280;29273;49.962;9.768;2023-02-01T05:43:01;100049.94;;;8.31;57.54
38780;BME280;29273;49.962;9.768;2023-02-01T05:45:27;100053.22;;;8.33;57.49
38780;BME280;29273;49.962;9.768;2023-02-01T05:47:52;100054.03;;;8.34;57.54
38780;BME280;29273;49.962;9.768;2023-02-01T05:50:18;100047.94;;;8.33;57.32
38780;BME280;29273;49.962;9.768;2023-02-01T05:52:43;100032.91;;;8.34;57.47
38780;BME280;29273;49.962;9.768;2023-02-01T05:55:09;100042.47;;;8.35;57.45
38780;BME280;29273;49.962;9.768;2023-02-01T05:57:35;100042.47;;;8.35;57.55
38780;BME280;29273;49.962;9.768;2023-02-01T06:00:00;100043.28;;;8.36;57.62
38780;BME280;29273;49.962;9.768;2023-02-01T06:02:26;100035.19;;;8.37;57.55
38780;BME280;29273;49.962;9.768;2023-02-01T06:04:51;100033.56;;;8.36;57.75
38780;BME280;29273;49.962;9.768;2023-02-01T06:07:17;100033.56;;;8.36;57.53
38780;BME280;29273;49.962;9.768;2023-02-01T06:09:42;100035.19;;;8.37;57.50
38780;BME280;29273;49.962;9.768;2023-02-01T06:12:08;100024.63;;;8.37;57.31
38780;BME280;29273;49.962;9.768;2023-02-01T06:14:33;100028.91;;;8.38;57.34
38780;BME280;29273;49.962;9.768;2023-02-01T06:16:59;100019.53;;;8.36;57.23
38780;BME280;29273;49.962;9.768;2023-02-01T06:19:25;100016.72;;;8.37;57.31
38780;BME280;29273;49.962;9.768;2023-02-01T06:21:51;100003.53;;;8.37;57.37
38780;BME280;29273;49.962;9.768;2023-02-01T06:24:16;100013.25;;;8.37;57.32
38780;BME280;29273;49.962;9.768;2023-02-01T06:26:42;100017.91;;;8.34;57.05
38780;BME280;29273;49.962;9.768;2023-02-01T06:29:10;100005.16;;;8.38;56.84
38780;BME280;29273;49.962;9.768;2023-02-01T06:31:35;100000.25;;;8.35;56.92
38780;BME280;29273;49.962;9.768;2023-02-01T06:34:01;99999.63;;;8.33;56.95
38780;BME280;29273;49.962;9.768;2023-02-01T06:36:28;100003.06;;;8.33;56.87
38780;BME280;29273;49.962;9.768;2023-02-01T06:38:53;100015.63;;;8.31;56.97
38780;BME280;29273;49.962;9.768;2023-02-01T06:41:22;100016.81;;;8.29;56.70
38780;BME280;29273;49.962;9.768;2023-02-01T06:43:48;100028.75;;;8.25;56.48
38780;BME280;29273;49.962;9.768;2023-02-01T06:46:14;100022.63;;;8.24;56.40
38780;BME280;29273;49.962;9.768;2023-02-01T06:48:40;100025.25;;;8.24;56.35
38780;BME280;29273;49.962;9.768;2023-02-01T06:51:05;100025.47;;;8.23;56.34
38780;BME280;29273;49.962;9.768;2023-02-01T06:53:31;100033.56;;;8.21;56.44
38780;BME280;29273;49.962;9.768;2023-02-01T06:56:00;100033.91;;;8.18;56.47
38780;BME280;29273;49.962;9.768;2023-02-01T06:58:31;100034.38;;;8.22;56.36
38780;BME280;29273;49.962;9.768;2023-02-01T07:00:57;100046.66;;;8.14;56.53
38780;BME280;29273;49.962;9.768;2023-02-01T07:03:23;100051.94;;;8.14;56.52
38780;BME280;29273;49.962;9.768;2023-02-01T07:05:48;100059.19;;;8.12;56.27
38780;BME280;29273;49.962;9.768;2023-02-01T07:08:14;100060.19;;;8.11;56.52
38780;BME280;29273;49.962;9.768;2023-02-01T07:10:39;100058.53;;;8.10;56.50
38780;BME280;29273;49.962;9.768;2023-02-01T07:13:05;100072.75;;;8.09;56.45
38780;BME280;29273;49.962;9.768;2023-02-01T07:15:30;100064.00;;;8.09;56.50
38780;BME280;29273;49.962;9.768;2023-02-01T07:17:56;100065.66;;;8.10;56.82
38780;BME280;29273;49.962;9.768;2023-02-01T07:20:22;100062.84;;;8.11;56.69
38780;BME280;29273;49.962;9.768;2023-02-01T07:22:48;100066.47;;;8.10;56.59
38780;BME280;29273;49.962;9.768;2023-02-01T07:25:13;100059.56;;;8.09;56.52
38780;BME280;29273;49.962;9.768;2023-02-01T07:27:39;100056.94;;;8.09;56.57
38780;BME280;29273;49.962;9.768;2023-02-01T07:30:06;100060.81;;;8.13;56.68
38780;BME280;29273;49.962;9.768;2023-02-01T07:32:32;100056.34;;;8.14;56.44
38780;BME280;29273;49.962;9.768;2023-02-01T07:34:58;100035.06;;;8.15;56.47
38780;BME280;29273;49.962;9.768;2023-02-01T07:37:23;100037.53;;;8.17;56.73
38780;BME280;29273;49.962;9.768;2023-02-01T07:39:52;100056.75;;;8.26;56.33
38780;BME280;29273;49.962;9.768;2023-02-01T07:42:17;100050.66;;;8.25;56.14
38780;BME280;29273;49.962;9.768;2023-02-01T07:44:43;100048.81;;;8.26;56.20
38780;BME280;29273;49.962;9.768;2023-02-01T07:47:08;100037.91;;;8.29;56.24
38780;BME280;29273;49.962;9.768;2023-02-01T07:49:34;100033.94;;;8.33;56.02
38780;BME280;29273;49.962;9.768;2023-02-01T07:51:59;100028.66;;;8.33;55.98
38780;BME280;29273;49.962;9.768;2023-02-01T07:54:25;100024.81;;;8.36;55.72
38780;BME280;29273;49.962;9.768;2023-02-01T07:56:51;100022.16;;;8.36;55.44
38780;BME280;29273;49.962;9.768;2023-02-01T07:59:16;100030.28;;;8.34;55.24
38780;BME280;29273;49.962;9.768;2023-02-01T08:01:42;100039.22;;;8.33;55.12
38780;BME280;29273;49.962;9.768;2023-02-01T08:04:10;100059.13;;;8.36;55.27
38780;BME280;29273;49.962;9.768;2023-02-01T08:06:36;100073.50;;;8.33;55.05
38780;BME280;29273;49.962;9.768;2023-02-01T08:09:03;100061.13;;;8.33;55.32
38780;BME280;29273;49.962;9.768;2023-02-01T08:11:29;100071.50;;;8.35;55.53
38780;BME280;29273;49.962;9.768;2023-02-01T08:13:55;100062.59;;;8.36;55.40
38780;BME280;29273;49.962;9.768;2023-02-01T08:16:22;100080.06;;;8.37;55.47
38780;BME280;29273;49.962;9.768;2023-02-01T08:18:48;100075.78;;;8.36;54.89
38780;BME280;29273;49.962;9.768;2023-02-01T08:21:20;100074.25;;;8.42;55.10
38780;BME280;29273;49.962;9.768;2023-02-01T08:23:47;100083.72;;;8.36;54.71
38780;BME280;29273;49.962;9.768;2023-02-01T08:26:17;100082.63;;;8.45;55.00
38780;BME280;29273;49.962;9.768;2023-02-01T08:28:46;100064.78;;;8.47;54.89
38780;BME280;29273;49.962;9.768;2023-02-01T08:31:14;100073.38;;;8.49;55.12
38780;BME280;29273;49.962;9.768;2023-02-01T08:33:41;100089.94;;;8.58;55.28
38780;BME280;29273;49.962;9.768;2023-02-01T08:36:08;100086.09;;;8.61;54.96
38780;BME280;29273;49.962;9.768;2023-02-01T08:38:38;100092.94;;;8.70;54.87
38780;BME280;29273;49.962;9.768;2023-02-01T08:41:09;100085.47;;;8.74;55.05
38780;BME280;29273;49.962;9.768;2023-02-01T08:43:35;100102.97;;;8.75;54.79
38780;BME280;29273;49.962;9.768;2023-02-01T08:46:01;100092.84;;;8.78;54.45
38780;BME280;29273;49.962;9.768;2023-02-01T08:48:27;100093.66;;;8.79;53.49
38780;BME280;29273;49.962;9.768;2023-02-01T08:50:52;100104.03;;;8.80;53.07
38780;BME280;29273;49.962;9.768;2023-02-01T08:53:17;100104.69;;;8.82;52.57
38780;BME280;29273;49.962;9.768;2023-02-01T08:55:45;100113.72;;;8.88;52.80
38780;BME280;29273;49.962;9.768;2023-02-01T08:58:11;100111.88;;;8.88;52.40
38780;BME280;29273;49.962;9.768;2023-02-01T09:00:39;100108.06;;;8.91;52.80
38780;BME280;29273;49.962;9.768;2023-02-01T09:03:05;100118.44;;;8.93;52.73
38780;BME280;29273;49.962;9.768;2023-02-01T09:05:30;100116.44;;;8.95;52.94
38780;BME280;29273;49.962;9.768;2023-02-01T09:07:56;100122.34;;;8.97;52.77
38780;BME280;29273;49.962;9.768;2023-02-01T09:10:22;100130.09;;;8.98;52.82
38780;BME280;29273;49.962;9.768;2023-02-01T09:12:47;100126.47;;;8.99;53.07
38780;BME280;29273;49.962;9.768;2023-02-01T09:15:12;100100.03;;;8.99;53.03
38780;BME280;29273;49.962;9.768;2023-02-01T09:17:38;100122.97;;;8.99;52.65
38780;BME280;29273;49.962;9.768;2023-02-01T09:20:05;100125.25;;;9.02;52.73
38780;BME280;29273;49.962;9.768;2023-02-01T09:22:30;100114.69;;;9.02;52.78
38780;BME280;29273;49.962;9.768;2023-02-01T09:24:56;100128.88;;;9.01;52.29
38780;BME280;29273;49.962;9.768;2023-02-01T09:27:21;100118.16;;;9.02;52.41
38780;BME280;29273;49.962;9.768;2023-02-01T09:29:47;100115.50;;;9.02;52.35
38780;BME280;29273;49.962;9.768;2023-02-01T09:32:19;100114.06;;;9.00;51.98
38780;BME280;29273;49.962;9.768;2023-02-01T09:34:44;100126.72;;;9.04;52.65
38780;BME280;29273;49.962;9.768;2023-02-01T09:37:10;100126.06;;;9.02;52.30
38780;BME280;29273;49.962;9.768;2023-02-01T09:39:35;100132.19;;;9.03;52.13
38780;BME280;29273;49.962;9.768;2023-02-01T09:42:12;100123.69;;;9.07;52.63
38780;BME280;29273;49.962;9.768;2023-02-01T09:47:15;100124.34;;;9.10;52.46
38780;BME280;29273;49.962;9.768;2023-02-01T09:50:10;100147.28;;;9.09;51.87
38780;BME280;29273;49.962;9.768;2023-02-01T09:52:52;100150.94;;;9.08;51.83
38780;BME280;29273;49.962;9.768;2023-02-01T09:58:05;100146.94;;;9.12;52.81
38780;BME280;29273;49.962;9.768;2023-02-01T10:00:38;100163.63;;;9.13;52.60
38780;BME280;29273;49.962;9.768;2023-02-01T10:03:05;100157.78;;;9.02;51.29
38780;BME280;29273;49.962;9.768;2023-02-01T10:05:54;100144.09;;;9.14;52.41
38780;BME280;29273;49.962;9.768;2023-02-01T10:11:04;100158.97;;;9.15;51.63
38780;BME280;29273;49.962;9.768;2023-02-01T10:16:53;100160.41;;;9.17;52.26
38780;BME280;29273;49.962;9.768;2023-02-01T10:22:10;100156.31;;;9.15;51.29
38780;BME280;29273;49.962;9.768;2023-02-01T10:24:46;100157.59;;;9.19;51.54
38780;BME280;29273;49.962;9.768;2023-02-01T10:27:21;100144.91;;;9.14;50.82
38780;BME280;29273;49.962;9.768;2023-02-01T10:29:53;100144.56;;;9.17;51.34
38780;BME280;29273;49.962;9.768;2023-02-01T10:32:22;100151.66;;;9.17;51.50
38780;BME280;29273;49.962;9.768;2023-02-01T10:34:55;100156.41;;;9.21;51.98
38780;BME280;29273;49.962;9.768;2023-02-01T10:39:55;100152.75;;;9.22;51.46
38780;BME280;29273;49.962;9.768;2023-02-01T10:42:25;100148.13;;;9.24;51.28
38780;BME280;29273;49.962;9.768;2023-02-01T10:44:54;100142.84;;;9.24;51.30
38780;BME280;29273;49.962;9.768;2023-02-01T10:47:20;100145.84;;;9.21;51.43
38780;BME280;29273;49.962;9.768;2023-02-01T10:49:55;100136.97;;;9.29;51.94
38780;BME280;29273;49.962;9.768;2023-02-01T10:52:33;100119.50;;;9.28;51.84
38780;BME280;29273;49.962;9.768;2023-02-01T10:57:56;100116.66;;;9.30;51.41
38780;BME280;29273;49.962;9.768;2023-02-01T11:00:23;100129.44;;;9.26;50.72
38780;BME280;29273;49.962;9.768;2023-02-01T11:02:48;100104.81;;;9.25;50.79
38780;BME280;29273;49.962;9.768;2023-02-01T11:05:16;100103.81;;;9.26;50.57
38780;BME280;29273;49.962;9.768;2023-02-01T11:07:49;100110.16;;;9.32;50.80
38780;BME280;29273;49.962;9.768;2023-02-01T11:10:39;100112.19;;;9.30;50.92
38780;BME280;29273;49.962;9.768;2023-02-01T11:13:13;100115.47;;;9.32;50.60
38780;BME280;29273;49.962;9.768;2023-02-01T11:18:37;100112.81;;;9.32;50.07
38780;BME280;29273;49.962;9.768;2023-02-01T11:21:05;100110.84;;;9.34;50.10
38780;BME280;29273;49.962;9.768;2023-02-01T11:23:32;100115.47;;;9.32;50.04
38780;BME280;29273;49.962;9.768;2023-02-01T11:26:02;100125.66;;;9.35;49.75
38780;BME280;29273;49.962;9.768;2023-02-01T11:28:35;100106.16;;;9.36;49.90
38780;BME280;29273;49.962;9.768;2023-02-01T11:31:07;100089.88;;;9.33;49.34
38780;BME280;29273;49.962;9.768;2023-02-01T11:33:36;100104.50;;;9.35;49.73
38780;BME280;29273;49.962;9.768;2023-02-01T11:36:13;100100.69;;;9.38;50.12
38780;BME280;29273;49.962;9.768;2023-02-01T11:38:46;100092.13;;;9.36;49.12
38780;BME280;29273;49.962;9.768;2023-02-01T11:41:23;100092.69;;;9.31;49.02
38780;BME280;29273;49.962;9.768;2023-02-01T11:44:00;100085.66;;;9.38;50.30
38780;BME280;29273;49.962;9.768;2023-02-01T11:46:31;100087.47;;;9.38;48.63
38780;BME280;29273;49.962;9.768;2023-02-01T11:49:15;100090.13;;;9.38;49.48
38780;BME280;29273;49.962;9.768;2023-02-01T12:00:21;100086.63;;;9.37;49.97
38780;BME280;29273;49.962;9.768;2023-02-01T12:05:47;100096.22;;;9.38;48.57
38780;BME280;29273;49.962;9.768;2023-02-01T12:08:25;100076.25;;;9.36;48.73
38780;BME280;29273;49.962;9.768;2023-02-01T12:11:05;100072.19;;;9.33;49.10
38780;BME280;29273;49.962;9.768;2023-02-01T12:21:57;100061.28;;;9.21;48.15
38780;BME280;29273;49.962;9.768;2023-02-01T12:24:42;100069.81;;;9.23;48.68
38780;BME280;29273;49.962;9.768;2023-02-01T12:30:10;100049.31;;;9.25;49.21
38780;BME280;29273;49.962;9.768;2023-02-01T12:32:51;100052.88;;;9.33;49.87
38780;BME280;29273;49.962;9.768;2023-02-01T12:35:48;100026.63;;;9.31;49.41
38780;BME280;29273;49.962;9.768;2023-02-01T12:43:59;100031.59;;;9.41;49.89
38780;BME280;29273;49.962;9.768;2023-02-01T12:46:37;100031.84;;;9.46;49.80
38780;BME280;29273;49.962;9.768;2023-02-01T12:49:11;100045.94;;;9.53;49.87
38780;BME280;29273;49.962;9.768;2023-02-01T12:51:43;100042.75;;;9.58;49.79
38780;BME280;29273;49.962;9.768;2023-02-01T12:54:16;100035.44;;;9.60;49.50
38780;BME280;29273;49.962;9.768;2023-02-01T12:56:51;100030.56;;;9.63;48.97
38780;BME280;29273;49.962;9.768;2023-02-01T13:02:00;100031.44;;;9.71;49.08
38780;BME280;29273;49.962;9.768;2023-02-01T13:04:32;100028.75;;;9.64;48.52
38780;BME280;29273;49.962;9.768;2023-02-01T13:07:12;100033.28;;;9.70;48.17
38780;BME280;29273;49.962;9.768;2023-02-01T13:09:50;100016.03;;;9.74;48.75
38780;BME280;29273;49.962;9.768;2023-02-01T13:12:22;99998.91;;;9.70;47.63
38780;BME280;29273;49.962;9.768;2023-02-01T13:15:02;100012.56;;;9.74;47.71
38780;BME280;29273;49.962;9.768;2023-02-01T13:17:32;100016.66;;;9.76;48.78
38780;BME280;29273;49.962;9.768;2023-02-01T13:20:17;100019.13;;;9.78;49.09
38780;BME280;29273;49.962;9.768;2023-02-01T13:22:49;100005.88;;;9.78;48.44
38780;BME280;29273;49.962;9.768;2023-02-01T13:25:31;100004.25;;;9.77;48.16
38780;BME280;29273;49.962;9.768;2023-02-01T13:28:04;100002.44;;;9.56;48.12
38780;BME280;29273;49.962;9.768;2023-02-01T13:33:28;100009.34;;;9.78;48.37
38780;BME280;29273;49.962;9.768;2023-02-01T13:36:15;100008.53;;;9.78;48.36
38780;BME280;29273;49.962;9.768;2023-02-01T13:39:12;100009.91;;;9.74;48.54
38780;BME280;29273;49.962;9.768;2023-02-01T13:41:55;99995.88;;;9.73;48.01
38780;BME280;29273;49.962;9.768;2023-02-01T13:44:36;100004.00;;;9.72;47.95
38780;BME280;29273;49.962;9.768;2023-02-01T13:47:21;99999.28;;;9.67;48.30
38780;BME280;29273;49.962;9.768;2023-02-01T13:49:48;99991.53;;;9.66;48.10
38780;BME280;29273;49.962;9.768;2023-02-01T13:52:25;100005.00;;;9.71;48.42
38780;BME280;29273;49.962;9.768;2023-02-01T13:55:03;100013.75;;;9.71;48.32
38780;BME280;29273;49.962;9.768;2023-02-01T13:57:40;100010.28;;;9.71;48.22
38780;BME280;29273;49.962;9.768;2023-02-01T14:10:53;99998.28;;;9.68;48.44
38780;BME280;29273;49.962;9.768;2023-02-01T14:13:35;99994.41;;;9.71;48.38
38780;BME280;29273;49.962;9.768;2023-02-01T14:28:56;99979.56;;;9.70;48.00
38780;BME280;29273;49.962;9.768;2023-02-01T14:31:35;99972.44;;;9.70;48.54
38780;BME280;29273;49.962;9.768;2023-02-01T14:34:11;99976.13;;;9.69;48.33
38780;BME280;29273;49.962;9.768;2023-02-01T14:36:44;99972.03;;;9.67;48.20
38780;BME280;29273;49.962;9.768;2023-02-01T14:39:26;99969.19;;;9.68;48.44
38780;BME280;29273;49.962;9.768;2023-02-01T14:41:56;99963.91;;;9.68;48.14
38780;BME280;29273;49.962;9.768;2023-02-01T14:44:26;99963.91;;;9.68;48.13
38780;BME280;29273;49.962;9.768;2023-02-01T14:47:09;99960.88;;;9.71;48.45
38780;BME280;29273;49.962;9.768;2023-02-01T14:49:54;99956.59;;;9.70;48.38
38780;BME280;29273;49.962;9.768;2023-02-01T14:52:23;99965.09;;;9.66;47.78
38780;BME280;29273;49.962;9.768;2023-02-01T14:54:55;99949.81;;;9.61;47.71
38780;BME280;29273;49.962;9.768;2023-02-01T14:57:26;99955.28;;;9.59;47.55
38780;BME280;29273;49.962;9.768;2023-02-01T15:00:24;99957.75;;;9.61;47.84
38780;BME280;29273;49.962;9.768;2023-02-01T15:02:51;99953.22;;;9.55;47.83
38780;BME280;29273;49.962;9.768;2023-02-01T15:05:28;99940.63;;;9.57;47.39
38780;BME280;29273;49.962;9.768;2023-02-01T15:07:57;99942.22;;;9.51;47.64
38780;BME280;29273;49.962;9.768;2023-02-01T15:10:24;99928.75;;;9.46;47.57
38780;BME280;29273;49.962;9.768;2023-02-01T15:12:50;99931.78;;;9.43;47.52
38780;BME280;29273;49.962;9.768;2023-02-01T15:15:21;99937.06;;;9.43;47.40